x

South Michigan - 43nm East Southeast Of Milwaukee, Wi (45007) Wave Buoy

8:50am - Sun 21st Sep 2014 All times are CDT. -5 hours from GMT.

  • Sig Wave height 4.9ft
  • Swell Direction
  • Peak Period 5s
  • Average Period 4s
  • Wind
    25mph, 31mph gusts
  • Sea Temp 63°f
  • Air Temp 59°f
  • Sea Pressure 1007mb
  • South Michigan - 43nm East Southeast Of Milwaukee, Wi
  • South Michigan - 43nm East Southeast Of Milwaukee, Wi

More Historic Weather Station data

Upgrade to MSW Pro to gain access to the past 30 days of data for over 8000 Wavebouys and Weather Stations around the globe.

Join Pro

Comparision Forecast

View Surf forecast
   
Sun 09/21 8:50am 5ft 5s 4s 25 31 mph 1007mb 63f 59f
7:50am 4.5ft 5s 4s 29 34 mph 1006.5mb 63f 60f
6:50am 5ft 5s 4s 27 31 mph 1006.2mb 63f 60f
5:50am 5ft 5s 4s 29 34 mph 1005.8mb 63f 60f
4:50am 4ft 4s 4s 27 31 mph 1005.4mb 63f 62f
3:50am 2.5ft 3s 3s 27 31 mph 1005mb 63f 63f
2:50am 2ft 4s 3s 20 25 mph 1004.5mb 64f 64f
1:50am 1.6ft 3s 3s 16 18 mph 1004.4mb 64f 64f
12:50am 1.3ft 3s 3s 11 13 mph 1004.2mb 64f 66f
Sat 09/20 11:50pm 1.3ft 3s 3s 16 22 mph 1005mb 64f 67f
10:50pm 1.3ft 3s 3s 11 20 mph 1006.6mb 64f 67f
9:50pm 1.3ft 3s 3s 16 18 mph 1006.8mb 63f 66f
8:50pm  -   -   -  13 16 mph 1007.7mb 63f 67f
7:50pm  -   -   -  13 16 mph 1008mb 63f 65f
6:50pm 2ft 4s 3s 13 16 mph 1007.8mb 63f 66f
5:50pm 2.5ft 4s 4s 16
mph
1007.5mb 63f 65f
4:50pm 2.5ft 5s 4s 20 22 mph 1007.8mb 63f 65f
3:50pm  -   -   -  13 16 mph 1009mb - 66f
2:50pm 3.5ft 5s 4s 18 20 mph 1008.8mb 63f 67f
1:50pm 3.5ft 6s 4s 16 20 mph 1008.9mb 63f 66f
12:50pm 4ft 6s 5s 18 22 mph 1009.3mb 63f 65f
11:50am 4.5ft 6s 5s 18 20 mph 1009.5mb 63f 64f
10:50am 4.5ft 6s 5s 16 20 mph 1010.1mb 64f 64f
9:50am 5ft 6s 5s 25 29 mph 1010.1mb 64f 65f
8:50am 4.5ft 6s 4s 27 31 mph 1009.1mb 64f 64f
7:50am 4.5ft 6s 4s 25 31 mph 1009.9mb 64f 64f
6:50am  -   -   -  25 29 mph 1011.1mb 64f 65f
5:50am 4ft 5s 4s 20 25 mph 1011.6mb 64f 65f
4:50am 4.5ft 6s 4s 25 29 mph 1011.8mb 64f 65f
3:50am 4.5ft 5s 4s 25 29 mph 1011.6mb 64f 65f
2:50am 4ft 5s 4s 27 31 mph 1011.1mb 64f 65f
1:50am 4.5ft 5s 4s 25 29 mph 1012.3mb 64f 65f
12:50am 4.5ft 5s 4s 25 29 mph 1012.2mb 64f 66f
Fri 09/19 11:50pm 4ft 4s 4s 25 29 mph 1013mb 64f 66f
10:50pm 3.5ft 4s 4s 25 27 mph 1013.4mb 64f 67f
9:50pm 3ft 4s 4s 25 27 mph 1013.6mb 64f 67f
8:50pm 2.5ft 4s 4s 20 25 mph 1014.5mb 64f 66f
7:50pm 2.5ft 4s 3s 18 22 mph 1015.2mb 64f 67f
6:50pm 2ft 4s 4s 18 22 mph 1015.4mb 64f 67f
5:50pm 2ft 4s 4s 18 20 mph 1015.9mb 64f 67f
4:50pm 2.5ft 5s 4s 16 18 mph 1016.4mb 65f 65f
3:50pm 3ft 5s 4s 16 18 mph 1017.1mb 65f 65f
2:50pm 3.5ft 5s 4s 16 20 mph 1018.6mb 65f 65f
1:50pm 3.5ft 6s 4s 18 20 mph 1019.3mb 65f 64f
12:50pm 4ft 5s 4s 20 25 mph 1020.1mb 65f 63f
11:50am 4ft 5s 4s 22 25 mph 1020.3mb 65f 62f
10:50am 4ft 5s 4s 20 25 mph 1021mb 65f 62f
9:50am 4ft 5s 4s 20 25 mph 1021.3mb 65f 61f
8:50am 3.5ft 5s 4s 20 22 mph 1021.8mb 64f 62f
7:50am 3.5ft 5s 4s 20 22 mph 1021.7mb 64f 61f
6:50am 3ft 4s 4s 20 22 mph 1021.5mb 64f 62f
5:50am 3ft 4s 4s 18 20 mph 1021.5mb 64f 62f
4:50am 3ft 4s 4s 18 22 mph 1021.4mb 62f 62f
3:50am 2.5ft 4s 4s 18 22 mph 1020.8mb 62f 61f
2:50am 2.5ft 4s 3s 16 20 mph 1021.4mb 62f 61f
1:50am 2.5ft 3s 3s 16 18 mph 1022mb 62f 61f
12:50am 2ft 5s 3s 16 18 mph 1021.8mb 62f 61f
Thu 09/18 11:50pm 2ft 5s 4s 13 18 mph 1022mb 63f 61f
10:50pm 1.6ft 5s 4s 11 13 mph 1021.7mb 64f 61f
9:50pm 2ft 5s 4s 11 13 mph 1021.7mb 64f 61f
8:50pm 2ft 6s 4s 9 11 mph 1021.6mb 65f 60f
7:50pm 2ft 6s 4s 9 11 mph 1020.9mb 65f 60f
6:50pm 2ft 6s 4s 9 11 mph 1020.3mb 65f 61f
5:50pm 2ft 6s 4s 11 13 mph 1020.2mb 65f 61f
4:50pm 2.5ft 6s 4s 13
mph
1020.3mb 65f 61f
3:50pm 2.5ft 6s 4s 2 7 mph 1020.6mb 66f 63f
2:50pm 2.5ft 7s 4s 2
mph
1020.6mb 66f 64f
1:50pm 2.5ft 6s 4s 4 7 mph 1021.2mb 64f 62f
12:50pm 2.5ft 6s 5s  -  2 mph 1021.4mb 64f 63f
11:50am 2.5ft 7s 5s 4 7 mph 1021.4mb 63f 62f
10:50am 2.5ft 6s 5s 4 7 mph 1021mb 63f 62f
9:50am 3ft 6s 5s  -  2 mph 1021mb 63f 62f
8:50am 2ft 5s 4s  -  2 mph 1020.4mb 62f 61f
7:50am 0.3ft  -  3s 2 4 mph 1019.5mb 63f 61f
6:50am 0.3ft  -  3s 7 9 mph 1018.9mb 64f 61f
5:50am 0.3ft  -  2s 7
mph
1018.6mb 64f 61f
4:50am 0.3ft  -  2s 7 9 mph 1018.4mb 65f 62f
3:50am  -   -  3s 11 13 mph 1018mb 65f 62f
2:50am  -   -  3s 7 9 mph 1017.5mb 65f 63f
1:50am  -   -  3s 7 9 mph 1017.4mb 65f 63f
12:50am  -   -  4s 7 9 mph 1017.3mb 65f 63f
Wed 09/17 11:50pm 0.3ft  -  3s 7
mph
1017.1mb 65f 63f
10:50pm 0.3ft  -  3s 7 9 mph 1017.1mb 65f 63f
9:50pm 0.3ft  -  3s 4 7 mph 1016.7mb 64f 62f
8:50pm 0.3ft  -  3s 7
mph
1016.4mb 64f 62f
7:50pm 0.3ft  -  3s 4 7 mph 1016mb 64f 62f
6:50pm 0.7ft  -  3s 4 7 mph 1015.8mb 63f 62f
5:50pm 0.7ft  -  3s 4 7 mph 1015.7mb 63f 62f
4:50pm 0.7ft  -  3s 4
mph
1016mb 63f 62f
3:50pm 1ft 4s 3s 4
mph
1016.2mb 65f 62f